createdAt,value
2022-08-22T00:00:26.421Z,3.13
2022-08-22T00:02:45.629Z,2.47
2022-08-22T00:03:01.247Z,2.97
2022-08-22T00:03:08.440Z,3.35
2022-08-22T00:03:10.898Z,3.10
2022-08-22T00:05:45.004Z,3.63
2022-08-22T00:10:50.743Z,3.20
2022-08-22T00:16:09.978Z,3.80
2022-08-22T00:21:36.466Z,3.60
2022-08-22T00:27:05.155Z,3.42
2022-08-22T00:32:30.481Z,3.95
2022-08-22T00:37:46.293Z,3.95
2022-08-22T00:43:11.257Z,4.70
2022-08-22T00:48:52.677Z,3.80
2022-08-22T00:54:17.373Z,4.07
2022-08-22T00:59:31.938Z,3.85
2022-08-22T01:05:10.600Z,3.83
2022-08-22T01:10:48.103Z,3.67
2022-08-22T01:16:04.641Z,3.92
2022-08-22T01:21:47.423Z,3.63
2022-08-22T01:27:24.548Z,4.10
2022-08-22T01:32:49.463Z,4.03
2022-08-22T01:38:19.683Z,4.20
2022-08-22T01:43:58.538Z,4.00
2022-08-22T01:49:14.331Z,4.20
2022-08-22T01:54:59.697Z,4.25
2022-08-22T02:00:09.276Z,4.07
2022-08-22T02:05:32.510Z,4.40
2022-08-22T02:11:00.515Z,4.53
2022-08-22T02:16:43.168Z,4.32
2022-08-22T02:22:07.774Z,4.65
2022-08-22T02:27:31.600Z,4.93
2022-08-22T02:32:41.006Z,3.97
2022-08-22T02:37:56.979Z,4.38
2022-08-22T02:43:09.942Z,4.05
2022-08-22T02:48:40.115Z,4.20
2022-08-22T02:53:50.562Z,4.25
2022-08-22T02:59:18.617Z,4.40
2022-08-22T03:04:48.497Z,4.33
2022-08-22T03:10:19.788Z,4.13
2022-08-22T03:15:37.193Z,4.45
2022-08-22T03:20:48.748Z,4.30
2022-08-22T03:26:19.786Z,4.10
2022-08-22T03:31:26.079Z,4.20
2022-08-22T03:36:32.210Z,4.25
2022-08-22T03:41:58.569Z,4.10
2022-08-22T03:47:36.630Z,4.00
2022-08-22T03:53:18.887Z,4.50
2022-08-22T03:58:44.921Z,4.05
2022-08-22T04:04:25.334Z,4.40
2022-08-22T04:10:08.332Z,4.45
2022-08-22T04:15:21.778Z,4.07
2022-08-22T04:20:51.182Z,5.10
2022-08-22T04:26:12.041Z,4.40
2022-08-22T04:31:23.158Z,4.57
2022-08-22T04:36:40.511Z,4.72
2022-08-22T04:41:49.671Z,4.78
2022-08-22T04:47:07.049Z,4.30
2022-08-22T04:52:16.031Z,4.70
2022-08-22T04:57:27.891Z,4.78
2022-08-22T05:02:32.029Z,4.30
2022-08-22T05:07:40.555Z,4.70
2022-08-22T05:12:54.019Z,4.47
2022-08-22T05:18:01.143Z,5.03
2022-08-22T05:23:17.537Z,4.60
2022-08-22T05:28:39.862Z,4.90
2022-08-22T05:33:48.054Z,4.63
2022-08-22T05:38:57.907Z,5.03
2022-08-22T05:44:03.321Z,5.18
2022-08-22T05:49:30.171Z,4.80
2022-08-22T05:54:37.443Z,5.88
2022-08-22T05:59:43.769Z,5.35
2022-08-22T06:04:50.959Z,6.68
2022-08-22T06:09:56.663Z,7.18
2022-08-22T06:15:16.073Z,6.88
2022-08-22T06:20:43.097Z,7.78
2022-08-22T06:25:50.546Z,7.25
2022-08-22T06:30:57.012Z,8.48
2022-08-22T06:36:27.139Z,7.15
2022-08-22T06:41:34.335Z,7.65
2022-08-22T06:46:39.132Z,7.30
2022-08-22T06:51:42.590Z,6.82
2022-08-22T06:56:49.443Z,6.60
2022-08-22T07:02:00.222Z,6.50
2022-08-22T07:07:03.596Z,6.93
2022-08-22T07:12:36.497Z,5.80
2022-08-22T07:17:52.407Z,4.70
2022-08-22T07:23:03.538Z,4.30
2022-08-22T07:28:36.994Z,3.92
2022-08-22T07:34:00.811Z,4.03
2022-08-22T07:39:33.961Z,3.63
2022-08-22T07:45:07.907Z,2.83
2022-08-22T07:50:16.818Z,2.47
2022-08-22T07:55:27.888Z,2.25
2022-08-22T08:00:33.753Z,2.55
2022-08-22T08:05:39.224Z,2.40
2022-08-22T08:10:42.584Z,2.72
2022-08-22T08:15:48.856Z,2.58
2022-08-22T08:20:55.584Z,2.38
2022-08-22T08:26:18.082Z,2.25
2022-08-22T08:31:27.863Z,2.55
2022-08-22T08:36:39.060Z,2.25
2022-08-22T08:42:16.948Z,2.60
2022-08-22T08:47:44.598Z,2.10
2022-08-22T08:53:31.361Z,2.10
2022-08-22T08:58:34.586Z,1.80
2022-08-22T09:10:04.085Z,2.67
2022-08-22T09:15:14.114Z,2.05
2022-08-22T09:20:25.894Z,2.85
2022-08-22T09:25:45.560Z,2.63
2022-08-22T09:31:32.789Z,2.67
2022-08-22T09:37:01.958Z,2.40
2022-08-22T09:42:19.543Z,2.80
2022-08-22T09:47:33.786Z,2.45
2022-08-22T09:52:51.668Z,2.22
2022-08-22T09:58:11.529Z,2.50
2022-08-22T10:03:33.791Z,2.40
2022-08-22T10:08:50.244Z,2.10
2022-08-22T10:14:22.054Z,2.20
2022-08-22T10:19:35.593Z,1.65
2022-08-22T10:24:45.457Z,1.92
2022-08-22T10:30:09.345Z,1.60
2022-08-22T10:35:51.751Z,1.92
2022-08-22T10:41:09.622Z,2.20
2022-08-22T10:46:17.459Z,1.70
2022-08-22T10:52:00.037Z,2.00
2022-08-22T10:57:23.393Z,1.85
2022-08-22T11:02:42.251Z,1.47
2022-08-22T11:08:12.689Z,1.55
2022-08-22T11:13:27.687Z,1.40
2022-08-22T11:19:15.303Z,1.38
2022-08-22T11:25:06.149Z,1.30
2022-08-22T11:30:44.732Z,1.52
2022-08-22T11:36:11.786Z,1.23
2022-08-22T11:41:32.178Z,1.67
2022-08-22T11:46:46.149Z,2.05
2022-08-22T11:52:20.909Z,2.00
2022-08-22T11:57:44.925Z,1.35
2022-08-22T12:03:25.918Z,1.88
2022-08-22T12:08:34.535Z,2.08
2022-08-22T12:13:50.063Z,1.23
2022-08-22T12:19:11.361Z,1.60
2022-08-22T12:24:34.057Z,1.45
2022-08-22T12:30:12.858Z,1.30
2022-08-22T12:35:33.204Z,1.50
2022-08-22T12:40:46.021Z,1.45
2022-08-22T12:46:20.966Z,1.55
2022-08-22T12:51:59.831Z,1.48
2022-08-22T12:57:24.044Z,1.60
2022-08-22T13:02:35.582Z,1.50
2022-08-22T13:07:41.988Z,1.45
2022-08-22T13:12:48.748Z,1.40
2022-08-22T13:17:54.293Z,1.88
2022-08-22T13:23:02.494Z,1.52
2022-08-22T13:28:35.402Z,1.50
2022-08-22T13:33:48.512Z,1.38
2022-08-22T13:39:23.199Z,1.50
2022-08-22T13:44:30.879Z,1.50
2022-08-22T13:49:44.628Z,1.40
2022-08-22T13:55:04.644Z,1.20
2022-08-22T14:00:38.249Z,1.38
2022-08-22T14:05:55.447Z,1.35
2022-08-22T14:11:33.088Z,1.58
2022-08-22T14:16:48.304Z,1.65
2022-08-22T14:21:59.564Z,1.45
2022-08-22T14:27:07.337Z,1.50
2022-08-22T14:32:35.404Z,1.20
2022-08-22T14:37:43.404Z,2.03
2022-08-22T14:42:53.978Z,1.42
2022-08-22T14:48:14.085Z,1.40
2022-08-22T14:53:29.912Z,1.45
2022-08-22T14:58:48.424Z,2.10
2022-08-22T15:04:19.268Z,1.58
2022-08-22T15:09:25.815Z,1.67
2022-08-22T15:14:38.281Z,1.50
2022-08-22T15:19:48.870Z,1.60
2022-08-22T15:25:28.763Z,1.50
2022-08-22T15:30:44.417Z,1.60
2022-08-22T15:35:50.330Z,1.60
2022-08-22T15:40:55.549Z,1.70
2022-08-22T15:46:40.180Z,1.73
2022-08-22T15:52:01.956Z,1.35
2022-08-22T15:57:11.503Z,1.45
2022-08-22T16:02:39.626Z,1.60
2022-08-22T16:07:44.730Z,1.40
2022-08-22T16:13:27.059Z,1.10
2022-08-22T16:18:34.777Z,1.50
2022-08-22T16:23:50.485Z,1.30
2022-08-22T16:29:31.860Z,0.80
2022-08-22T16:34:46.305Z,1.13
2022-08-22T16:40:14.482Z,1.27
2022-08-22T16:45:30.916Z,1.20
2022-08-22T16:50:39.172Z,0.90
2022-08-22T16:55:46.082Z,1.05
2022-08-22T17:00:58.683Z,1.20
2022-08-22T17:06:34.036Z,1.10
2022-08-22T17:12:09.927Z,1.05
2022-08-22T17:17:28.208Z,0.85
2022-08-22T17:22:53.821Z,1.05
2022-08-22T17:28:02.868Z,0.90
2022-08-22T17:33:23.462Z,1.13
2022-08-22T17:39:29.528Z,0.95
2022-08-22T17:44:44.584Z,1.38
2022-08-22T17:50:06.191Z,1.40
2022-08-22T17:55:30.157Z,1.10
2022-08-22T18:00:48.196Z,1.10
2022-08-22T18:06:05.727Z,1.20
2022-08-22T18:11:09.436Z,1.40
2022-08-22T18:16:25.131Z,1.30
2022-08-22T18:22:08.609Z,1.58
2022-08-22T18:27:39.738Z,1.30
2022-08-22T18:33:02.558Z,1.27
2022-08-22T18:45:01.061Z,1.40
2022-08-22T18:50:51.419Z,1.70
2022-08-22T19:15:27.539Z,2.08
2022-08-22T19:21:09.866Z,1.52
2022-08-22T19:26:39.330Z,1.70
2022-08-22T19:32:13.038Z,1.40
2022-08-22T19:37:33.461Z,1.60
2022-08-22T19:56:38.048Z,1.40
2022-08-22T20:03:08.042Z,1.40
2022-08-22T20:29:14.999Z,1.63
2022-08-22T20:35:02.109Z,1.48
2022-08-22T20:46:37.289Z,1.40
2022-08-22T21:11:47.960Z,1.73
2022-08-22T21:29:18.526Z,1.80
2022-08-22T21:41:10.010Z,1.63
2022-08-22T21:46:53.691Z,2.13
2022-08-22T21:53:02.143Z,1.95
2022-08-22T22:11:59.745Z,1.90
2022-08-22T22:17:46.337Z,2.08
2022-08-22T22:23:31.811Z,1.90
2022-08-22T22:35:42.393Z,2.35
2022-08-22T22:41:33.345Z,2.00
2022-08-22T22:47:23.014Z,1.80
2022-08-22T23:06:15.187Z,1.80
2022-08-22T23:30:52.799Z,2.05
2022-08-22T23:54:03.386Z,1.83
